Time;durP1;ratioP1;P1;durP2;ratioP2;P2;SDS_P1;SDS_P2;PMS_P1;PMS_P2;Temp;Humidity;BMP_temperature;BMP_pressure;BME280_temperature;BME280_humidity;BME280_pressure;Samples;Min_cycle;Max_cycle;Signal;HPM_P1;HPM_P2
2022/04/03 00:00:55;;;;;;;;;12.33;12.33;;;;;9.88;33.81;101855.59;4993242;28;45444;-84
2022/04/03 00:03:20;;;;;;;;;12.00;10.67;;;;;10.14;34.47;101905.59;4993684;28;45409;-84
2022/04/03 00:05:45;;;;;;;;;12.00;11.00;;;;;10.28;34.11;101931.06;4992013;28;45480;-84
2022/04/03 00:08:12;;;;;;;;;11.00;10.00;;;;;10.08;34.33;101907.53;4994122;28;45593;-84
2022/04/03 00:10:39;;;;;;;;;13.33;13.00;;;;;10.05;33.92;101902.28;4993028;28;45654;-84
2022/04/03 00:13:05;;;;;;;;;12.00;11.00;;;;;9.74;34.05;101855.03;4993195;28;45336;-84
2022/04/03 00:15:31;;;;;;;;;11.00;11.00;;;;;9.75;34.43;101859.44;4993854;28;45351;-84
2022/04/03 00:17:57;;;;;;;;;13.00;12.00;;;;;10.19;34.59;101945.44;4992224;27;45413;-84
2022/04/03 00:20:22;;;;;;;;;12.33;11.00;;;;;9.72;34.34;101871.03;4993812;28;46117;-84
2022/04/03 00:22:48;;;;;;;;;12.67;12.67;;;;;10.02;34.56;101908.56;4995557;28;45361;-84
2022/04/03 00:25:18;;;;;;;;;11.33;8.67;;;;;10.18;34.77;101940.16;4996365;27;45443;-84
2022/04/03 00:27:44;;;;;;;;;13.00;13.00;;;;;9.99;34.48;101908.59;4995677;27;45268;-84
2022/04/03 00:30:10;;;;;;;;;16.00;13.33;;;;;9.64;34.72;101856.13;4996113;28;46851;-84
2022/04/03 00:32:35;;;;;;;;;12.33;12.33;;;;;9.73;34.91;101877.22;4996488;27;45287;-83
2022/04/03 00:35:01;;;;;;;;;13.33;11.33;;;;;9.26;35.24;101793.97;4996560;28;45208;-83
2022/04/03 00:37:27;;;;;;;;;14.00;11.00;;;;;9.92;35.26;101914.97;4995057;28;45573;-84
2022/04/03 00:39:52;;;;;;;;;11.00;9.00;;;;;9.85;35.04;101900.03;4994959;28;45471;-84
2022/04/03 00:42:18;;;;;;;;;14.67;12.00;;;;;9.54;35.34;101849.25;4995805;28;45529;-84
2022/04/03 00:44:43;;;;;;;;;10.00;9.00;;;;;9.43;35.31;101846.81;4996100;27;45543;-84
2022/04/03 00:47:11;;;;;;;;;12.33;9.33;;;;;9.71;35.45;101892.34;4994949;28;45402;-84
2022/04/03 00:49:37;;;;;;;;;11.00;11.00;;;;;9.79;35.73;101900.19;4996153;28;46349;-84
2022/04/03 00:52:02;;;;;;;;;13.00;13.00;;;;;10.00;35.37;101949.44;4995793;27;45349;-84
2022/04/03 00:54:28;;;;;;;;;11.67;9.67;;;;;9.45;35.44;101847.66;4996035;28;45508;-84
2022/04/03 00:56:53;;;;;;;;;10.00;10.00;;;;;10.00;35.31;101939.66;5011873;28;46055;-84
2022/04/03 00:59:19;;;;;;;;;14.00;12.00;;;;;9.60;35.91;101876.63;4994254;28;47854;-84
2022/04/03 01:01:45;;;;;;;;;11.00;11.00;;;;;9.53;35.92;101864.38;4996013;28;45347;-84
2022/04/03 01:04:10;;;;;;;;;12.00;12.00;;;;;9.98;35.87;101937.94;4995556;27;45419;-84
2022/04/03 01:06:36;;;;;;;;;12.67;12.67;;;;;9.57;35.80;101879.34;4996226;28;45379;-84
2022/04/03 01:09:03;;;;;;;;;12.33;12.00;;;;;9.01;35.97;101781.22;4995642;28;45263;-84
2022/04/03 01:11:29;;;;;;;;;12.00;11.00;;;;;9.92;35.63;101936.28;4996095;28;45504;-84
2022/04/03 01:13:54;;;;;;;;;10.67;9.33;;;;;9.29;36.27;101831.16;4996115;28;45511;-84
2022/04/03 01:16:20;;;;;;;;;13.33;10.33;;;;;9.63;35.82;101905.84;5011043;28;45308;-84
2022/04/03 01:18:46;;;;;;;;;12.00;12.00;;;;;9.84;36.44;101936.44;4995804;27;46439;-84
2022/04/03 01:21:12;;;;;;;;;12.33;11.00;;;;;9.83;35.89;101940.03;4995929;28;45541;-83
2022/04/03 01:23:38;;;;;;;;;12.00;10.33;;;;;9.77;36.44;101926.84;4996417;28;45231;-84
2022/04/03 01:26:03;;;;;;;;;9.33;9.00;;;;;9.48;36.32;101891.06;4995311;28;45593;-84
2022/04/03 01:28:29;;;;;;;;;14.00;13.00;;;;;9.79;36.46;101940.13;4995551;27;46226;-84
2022/04/03 01:30:55;;;;;;;;;9.00;8.00;;;;;9.11;36.30;101820.88;4995891;27;45180;-84
2022/04/03 01:33:20;;;;;;;;;15.00;11.67;;;;;9.19;36.69;101843.75;4995100;27;45842;-84
2022/04/03 01:35:46;;;;;;;;;13.00;12.00;;;;;9.47;36.70;101896.41;4996421;27;45242;-84
2022/04/03 01:38:12;;;;;;;;;10.33;10.33;;;;;9.56;37.13;101906.00;4995636;27;46352;-83
2022/04/03 01:40:37;;;;;;;;;10.67;9.00;;;;;9.39;36.86;101874.41;4995342;28;45504;-84
2022/04/03 01:43:04;;;;;;;;;9.67;9.67;;;;;9.74;37.01;101937.56;4995991;28;45320;-84
2022/04/03 01:45:29;;;;;;;;;13.00;11.67;;;;;9.71;36.62;101932.28;4995730;27;45465;-84
2022/04/03 01:47:55;;;;;;;;;10.33;10.00;;;;;8.74;36.86;101774.66;4995774;28;45826;-84
2022/04/03 01:50:20;;;;;;;;;10.67;9.00;;;;;9.37;36.86;101882.44;4995304;28;48942;-84
2022/04/03 01:52:45;;;;;;;;;10.00;9.00;;;;;9.70;37.00;101931.41;4995421;28;45462;-84
2022/04/03 01:55:11;;;;;;;;;12.33;9.67;;;;;9.34;36.93;101877.19;4994472;27;45500;-84
2022/04/03 01:57:37;;;;;;;;;13.00;12.00;;;;;9.65;36.81;101922.66;5010691;27;47207;-84
2022/04/03 02:00:06;;;;;;;;;9.00;7.67;;;;;9.59;36.83;101909.47;4994283;28;45607;-84
2022/04/03 02:02:32;;;;;;;;;11.33;10.00;;;;;9.41;37.26;101881.47;5010538;27;45309;-84
2022/04/03 02:04:58;;;;;;;;;11.00;10.67;;;;;9.61;36.76;101923.63;4995968;28;45511;-84
2022/04/03 02:07:24;;;;;;;;;11.00;11.00;;;;;9.68;37.34;101927.91;4994035;28;47341;-84
2022/04/03 02:09:50;;;;;;;;;11.00;8.00;;;;;9.25;37.26;101858.75;5010789;27;45448;-84
2022/04/03 02:12:15;;;;;;;;;13.00;10.00;;;;;9.63;36.81;101923.59;4995077;28;45460;-84
2022/04/03 02:14:41;;;;;;;;;15.67;13.33;;;;;9.39;37.05;101877.06;4995262;28;45683;-84
2022/04/03 02:17:07;;;;;;;;;12.67;12.00;;;;;9.23;37.03;101852.56;4995638;27;46372;-84
2022/04/03 02:19:32;;;;;;;;;10.33;10.33;;;;;9.54;37.04;101914.00;5010522;28;45458;-84
2022/04/03 02:21:57;;;;;;;;;10.33;10.00;;;;;9.10;37.38;101841.28;4994106;28;45538;-84
2022/04/03 02:24:22;;;;;;;;;12.00;10.00;;;;;9.58;37.38;101934.34;4995214;28;45502;-84
2022/04/03 02:26:48;;;;;;;;;10.00;10.00;;;;;8.86;37.33;101802.78;5005233;27;46902;-84
2022/04/03 02:29:13;;;;;;;;;13.33;12.33;;;;;9.61;37.04;101942.25;4984939;28;45239;-83
2022/04/03 02:31:39;;;;;;;;;11.00;10.67;;;;;9.49;37.35;101922.09;4994811;28;45728;-84
2022/04/03 02:34:05;;;;;;;;;10.67;10.00;;;;;9.23;37.52;101874.72;4995839;28;45384;-84
2022/04/03 02:36:30;;;;;;;;;10.00;9.00;;;;;9.58;37.23;101947.66;4995189;28;45378;-84
2022/04/03 02:38:56;;;;;;;;;9.33;9.33;;;;;9.49;37.79;101922.09;4995135;28;45407;-84
2022/04/03 02:41:21;;;;;;;;;12.00;12.00;;;;;9.16;37.36;101872.22;5009763;28;45440;-84
2022/04/03 02:43:46;;;;;;;;;10.00;9.00;;;;;9.10;37.62;101867.88;5009602;27;45659;-84
2022/04/03 02:46:12;;;;;;;;;9.67;8.67;;;;;9.11;37.57;101856.34;4994468;27;46416;-84
2022/04/03 02:48:38;;;;;;;;;14.33;11.00;;;;;9.50;37.60;101926.53;4994563;28;45574;-84
2022/04/03 02:51:03;;;;;;;;;13.00;11.33;;;;;9.27;38.03;101888.81;4995249;28;45444;-84
2022/04/03 02:53:28;;;;;;;;;12.50;12.50;;;;;9.48;37.89;101928.34;4995263;28;45569;-84
2022/04/03 02:55:54;;;;;;;;;10.00;10.00;;;;;9.22;37.74;101890.69;4993660;28;47416;-84
2022/04/03 02:58:19;;;;;;;;;12.00;12.00;;;;;9.51;37.78;101938.91;4995011;27;45416;-84
2022/04/03 03:00:46;;;;;;;;;15.00;12.00;;;;;8.81;37.92;101820.59;4994687;28;45376;-84
2022/04/03 03:03:11;;;;;;;;;11.67;11.67;;;;;9.49;37.81;101935.41;4995083;27;45502;-84
2022/04/03 03:05:38;;;;;;;;;12.67;12.33;;;;;9.06;37.62;101860.88;4994006;28;46292;-83
2022/04/03 03:08:04;;;;;;;;;13.33;10.33;;;;;9.48;37.95;101940.72;4994620;28;45444;-84
2022/04/03 03:10:30;;;;;;;;;10.67;9.33;;;;;9.26;37.72;101911.91;4993106;28;45321;-84
2022/04/03 03:12:55;;;;;;;;;15.00;11.67;;;;;9.21;37.79;101896.94;4994675;28;45592;-84
2022/04/03 03:15:21;;;;;;;;;11.00;10.33;;;;;8.79;37.90;101844.53;4994299;28;45546;-84
2022/04/03 03:17:47;;;;;;;;;13.00;11.00;;;;;9.34;38.16;101933.06;4992622;28;46008;-84
2022/04/03 03:20:12;;;;;;;;;8.67;8.67;;;;;9.04;38.20;101878.66;4994676;27;45450;-84
2022/04/03 03:22:38;;;;;;;;;11.00;11.00;;;;;8.90;37.90;101867.38;4992950;27;45496;-84
2022/04/03 03:25:06;;;;;;;;;12.33;11.00;;;;;9.43;37.99;101955.91;4992982;28;47379;-84
2022/04/03 03:27:35;;;;;;;;;10.00;10.00;;;;;9.41;38.02;101958.63;4993981;27;45354;-84
2022/04/03 03:30:00;;;;;;;;;10.00;10.00;;;;;9.28;38.42;101946.47;4993577;27;45441;-84
2022/04/03 03:32:26;;;;;;;;;10.50;10.50;;;;;9.14;38.27;101921.91;4994969;28;45607;-84
2022/04/03 03:34:52;;;;;;;;;9.00;8.00;;;;;9.39;38.00;101962.19;5009454;28;47621;-84
2022/04/03 03:37:17;;;;;;;;;10.67;9.00;;;;;9.33;38.51;101957.00;4994506;27;45559;-84
2022/04/03 03:39:43;;;;;;;;;8.33;8.00;;;;;8.74;38.05;101853.50;5009443;28;45637;-84
2022/04/03 03:42:08;;;;;;;;;13.00;10.00;;;;;9.34;38.27;101967.66;4993185;28;45591;-84
2022/04/03 03:44:34;;;;;;;;;10.67;10.33;;;;;9.28;38.13;101949.13;4993500;28;46345;-84
2022/04/03 03:46:59;;;;;;;;;10.33;9.67;;;;;9.07;38.52;101923.81;4993026;27;45409;-84
2022/04/03 03:49:26;;;;;;;;;11.67;10.00;;;;;9.25;38.22;101960.69;4994095;28;45411;-84
2022/04/03 03:51:52;;;;;;;;;8.00;8.00;;;;;8.88;38.53;101888.69;4993636;27;45553;-84
2022/04/03 03:54:17;;;;;;;;;11.00;9.67;;;;;8.68;38.25;101853.63;4994007;28;46529;-84
2022/04/03 03:56:43;;;;;;;;;7.33;6.67;;;;;9.20;38.56;101948.38;4992573;28;45662;-84
2022/04/03 03:59:08;;;;;;;;;9.33;9.33;;;;;8.82;38.20;101891.44;4996056;28;45538;-84
2022/04/03 04:01:34;;;;;;;;;7.67;6.67;;;;;9.20;38.53;101957.25;4997245;28;45564;-84
2022/04/03 04:04:00;;;;;;;;;6.00;6.00;;;;;8.85;38.15;101894.09;5012094;28;48159;-84
2022/04/03 04:06:25;;;;;;;;;11.00;9.67;;;;;8.77;38.31;101886.22;4995801;27;46104;-84
2022/04/03 04:08:51;;;;;;;;;12.00;9.67;;;;;8.59;38.55;101858.22;4996602;28;45547;-84
2022/04/03 04:11:16;;;;;;;;;9.00;9.00;;;;;8.92;38.58;101919.66;4997348;28;45186;-84
2022/04/03 04:13:41;;;;;;;;;8.00;8.00;;;;;8.78;38.43;101903.03;4995034;27;48193;-84
2022/04/03 04:16:08;;;;;;;;;10.33;7.33;;;;;8.43;38.29;101846.09;4996664;28;46634;-84
2022/04/03 04:18:33;;;;;;;;;10.67;9.67;;;;;8.55;38.30;101874.22;4996848;27;45336;-84
2022/04/03 04:21:02;;;;;;;;;7.67;6.00;;;;;8.76;38.49;101915.50;4996762;27;45281;-84
2022/04/03 04:23:27;;;;;;;;;9.00;9.00;;;;;8.48;38.68;101899.16;4995447;28;47531;-84
2022/04/03 04:25:52;;;;;;;;;9.67;9.67;;;;;8.27;38.55;101855.19;4996162;27;45412;-84
2022/04/03 04:28:18;;;;;;;;;10.00;10.00;;;;;8.93;38.26;101979.88;4995721;28;45449;-84
2022/04/03 04:30:43;;;;;;;;;11.67;9.00;;;;;8.55;38.46;101920.28;4995219;28;45453;-84
2022/04/03 04:33:08;;;;;;;;;8.00;8.00;;;;;8.63;38.97;101949.38;4996859;27;46526;-84
2022/04/03 04:35:35;;;;;;;;;8.67;8.67;;;;;8.88;38.88;101995.03;4996625;28;45210;-84
2022/04/03 04:38:02;;;;;;;;;9.00;8.67;;;;;7.95;38.92;101857.41;4996290;27;45432;-84
2022/04/03 04:40:27;;;;;;;;;8.67;8.00;;;;;8.59;39.05;101967.16;4996731;28;45495;-84
2022/04/03 04:42:55;;;;;;;;;10.67;10.67;;;;;8.51;39.34;101949.56;4995819;28;45428;-84
2022/04/03 04:45:21;;;;;;;;;8.67;8.67;;;;;8.12;39.06;101891.69;4996542;28;45414;-84
2022/04/03 04:47:48;;;;;;;;;11.67;9.00;;;;;8.28;39.46;101933.94;4996458;28;45318;-84
2022/04/03 04:50:14;;;;;;;;;7.33;7.33;;;;;7.88;39.42;101884.94;4996817;28;45451;-84
2022/04/03 04:52:40;;;;;;;;;10.33;9.33;;;;;8.51;39.47;101995.63;4994567;28;47255;-84
2022/04/03 04:55:07;;;;;;;;;7.33;7.33;;;;;8.17;39.53;101944.72;4996023;27;45175;-84
2022/04/03 04:57:34;;;;;;;;;11.00;9.33;;;;;7.96;39.54;101922.91;4995233;28;45353;-84
2022/04/03 05:00:00;;;;;;;;;9.67;8.00;;;;;8.09;39.22;101951.94;4996268;28;45628;-84
2022/04/03 05:02:26;;;;;;;;;9.00;9.00;;;;;8.42;39.21;102014.34;4996214;28;46243;-84
2022/04/03 05:04:52;;;;;;;;;10.33;9.00;;;;;8.22;39.34;101990.69;4995827;28;45323;-83
2022/04/03 05:07:17;;;;;;;;;8.33;7.33;;;;;8.06;39.66;101973.22;4995497;28;45269;-84
2022/04/03 05:09:45;;;;;;;;;9.67;8.33;;;;;8.03;39.46;101980.31;4996379;28;45407;-84
2022/04/03 05:12:12;;;;;;;;;11.00;10.00;;;;;8.24;39.54;102028.72;5010958;27;47287;-84
2022/04/03 05:14:37;;;;;;;;;10.67;10.00;;;;;7.76;39.43;101939.09;4995745;28;45463;-84
2022/04/03 05:17:04;;;;;;;;;9.67;7.67;;;;;7.93;39.65;101983.97;4995814;28;45985;-84
2022/04/03 05:19:30;;;;;;;;;11.33;9.67;;;;;8.15;39.19;102016.47;4996431;27;45407;-84
2022/04/03 05:21:55;;;;;;;;;8.33;8.33;;;;;7.76;39.29;101954.13;4994824;28;48229;-84
2022/04/03 05:24:21;;;;;;;;;13.67;11.00;;;;;8.13;39.16;102012.06;4994462;28;48387;-84
2022/04/03 05:26:46;;;;;;;;;10.00;10.00;;;;;7.63;39.04;101944.56;4995612;28;45619;-84
2022/04/03 05:29:11;;;;;;;;;10.33;10.33;;;;;7.69;39.29;101948.03;4994534;28;45436;-84
2022/04/03 05:31:37;;;;;;;;;12.00;11.33;;;;;7.48;39.18;101927.06;4995696;27;45443;-84
2022/04/03 05:34:02;;;;;;;;;9.67;9.00;;;;;8.04;39.29;102019.25;4995457;28;45637;-84
2022/04/03 05:36:28;;;;;;;;;10.00;8.33;;;;;8.10;39.27;102033.31;4996024;28;45566;-84
2022/04/03 05:38:53;;;;;;;;;9.67;9.67;;;;;7.68;39.15;101974.56;4995918;28;45233;-84
2022/04/03 05:41:19;;;;;;;;;12.33;10.33;;;;;7.97;39.10;102019.34;4995323;27;45491;-84
2022/04/03 05:43:44;;;;;;;;;10.33;10.33;;;;;7.49;38.68;101942.06;4994510;28;45410;-84
2022/04/03 05:46:10;;;;;;;;;9.00;8.00;;;;;7.92;38.80;102023.84;4994290;27;45323;-84
2022/04/03 05:48:35;;;;;;;;;11.33;9.33;;;;;7.60;38.96;101972.00;4995221;28;45442;-84
2022/04/03 05:51:01;;;;;;;;;8.33;8.33;;;;;7.59;38.80;101967.63;4995222;27;46476;-84
2022/04/03 05:53:27;;;;;;;;;10.67;9.00;;;;;7.86;39.04;102015.94;4995672;28;45769;-84
2022/04/03 05:55:53;;;;;;;;;8.00;7.67;;;;;7.73;39.17;102005.47;4995573;27;45303;-84
2022/04/03 05:58:18;;;;;;;;;10.67;10.33;;;;;7.52;38.92;101961.50;4994259;27;45398;-84
2022/04/03 06:00:44;;;;;;;;;8.00;8.00;;;;;7.60;38.67;101966.69;4995431;28;45605;-84
2022/04/03 06:03:09;;;;;;;;;8.00;8.00;;;;;7.59;38.71;101973.78;4995400;28;45303;-84
2022/04/03 06:05:35;;;;;;;;;7.00;7.00;;;;;7.57;38.70;101974.69;4995373;27;45404;-84
2022/04/03 06:08:01;;;;;;;;;10.67;8.00;;;;;8.02;39.18;102054.69;5010860;28;45570;-84
2022/04/03 06:10:27;;;;;;;;;9.67;8.33;;;;;8.10;38.66;102066.09;4994072;28;47344;-84
2022/04/03 06:13:01;;;;;;;;;10.67;10.67;;;;;7.66;38.60;101981.69;4995075;28;45375;-84
2022/04/03 06:15:38;;;;;;;;;9.67;8.33;;;;;7.61;38.47;101976.44;4995610;28;45415;-84
2022/04/03 06:18:17;;;;;;;;;12.00;10.00;;;;;7.97;38.37;102029.97;4994049;28;45492;-83
2022/04/03 06:20:42;;;;;;;;;13.33;12.00;;;;;8.09;38.25;102048.38;4993444;28;48094;-84
2022/04/03 06:23:16;;;;;;;;;10.00;9.00;;;;;7.64;38.12;101978.16;5010403;27;45997;-84
2022/04/03 06:25:42;;;;;;;;;12.67;10.67;;;;;8.21;38.31;102069.47;4994051;28;45396;-84
2022/04/03 06:28:08;;;;;;;;;10.00;10.00;;;;;7.77;38.34;101993.94;4994830;28;45613;-84
2022/04/03 06:30:34;;;;;;;;;10.00;9.67;;;;;8.26;38.07;102090.66;4994903;28;46493;-84
2022/04/03 06:32:59;;;;;;;;;14.00;10.00;;;;;8.22;38.10;102076.56;4995321;27;45815;-84
2022/04/03 06:35:25;;;;;;;;;11.33;8.33;;;;;7.23;38.10;101908.75;5005431;28;45341;-84
2022/04/03 06:37:50;;;;;;;;;8.00;7.00;;;;;7.89;38.35;102015.88;5000797;28;45413;-84
2022/04/03 06:40:16;;;;;;;;;9.67;9.67;;;;;7.65;37.65;101970.16;4994197;27;45447;-84
2022/04/03 06:42:42;;;;;;;;;9.00;9.00;;;;;8.20;37.97;102056.22;4993667;27;45503;-84
2022/04/03 06:45:10;;;;;;;;;9.33;9.00;;;;;8.42;37.89;102091.38;4994659;28;45329;-84
2022/04/03 06:47:36;;;;;;;;;12.33;12.00;;;;;8.14;37.58;102041.25;4995233;28;45263;-84
2022/04/03 06:50:05;;;;;;;;;11.00;11.00;;;;;8.49;37.32;102090.41;4994830;28;45322;-84
2022/04/03 06:52:30;;;;;;;;;8.33;7.00;;;;;7.93;37.42;101996.38;4994379;27;45507;-84
2022/04/03 06:54:56;;;;;;;;;13.33;10.33;;;;;7.69;37.42;101950.66;4995434;28;45691;-84
2022/04/03 06:57:21;;;;;;;;;8.00;7.67;;;;;7.74;36.84;101956.78;4993788;28;45526;-84
2022/04/03 07:00:28;;;;;;;;;9.67;9.67;;;;;8.18;36.86;102026.16;4994986;28;45922;-85
2022/04/03 07:02:54;;;;;;;;;12.67;12.33;;;;;8.49;37.20;102070.94;4990260;28;45393;-87
2022/04/03 07:05:38;;;;;;;;;11.00;8.00;;;;;8.60;36.99;102096.47;5010956;27;45514;-87
2022/04/03 07:08:04;;;;;;;;;10.00;10.00;;;;;7.59;37.14;101907.47;4992902;27;45758;-84
2022/04/03 07:10:33;;;;;;;;;10.00;7.33;;;;;8.80;36.48;102108.59;4994083;27;47144;-83
2022/04/03 07:13:45;;;;;;;;;12.00;10.00;;;;;8.85;36.74;102109.41;4993966;28;45538;-85
2022/04/03 07:16:31;;;;;;;;;7.67;7.33;;;;;8.94;36.79;102111.03;4956921;28;45752;-81
2022/04/03 07:18:56;;;;;;;;;8.33;5.67;;;;;9.00;36.15;102116.28;4975601;28;46152;-86
2022/04/03 07:21:22;;;;;;;;;8.67;7.00;;;;;8.95;36.10;102103.06;4985725;27;45551;-83
2022/04/03 07:23:48;;;;;;;;;9.00;7.00;;;;;9.12;36.35;102124.06;4994940;28;45507;-85
2022/04/03 07:26:14;;;;;;;;;57.75;45.25;;;;;9.19;35.95;102120.41;4995089;28;45255;-85
2022/04/03 07:28:40;;;;;;;;;23.33;21.67;;;;;8.72;35.91;102036.94;4994330;27;45263;-85
2022/04/03 07:31:06;;;;;;;;;7.33;7.00;;;;;8.87;35.93;102050.00;4992754;28;45666;-84
2022/04/03 07:33:31;;;;;;;;;6.67;6.67;;;;;8.57;35.66;101982.25;4993878;28;45727;-84
2022/04/03 07:35:57;;;;;;;;;5.67;5.67;;;;;8.40;35.11;101945.28;5006337;28;45645;-85
2022/04/03 07:38:22;;;;;;;;;6.67;6.67;;;;;8.99;35.23;102035.63;5008716;28;45569;-84
2022/04/03 07:40:47;;;;;;;;;7.33;7.33;;;;;8.56;34.92;101951.25;5011341;27;46931;-85
2022/04/03 07:43:16;;;;;;;;;9.33;6.00;;;;;9.54;34.77;102112.75;4999915;28;45514;-84
2022/04/03 07:45:41;;;;;;;;;4.00;3.00;;;;;9.32;34.85;102067.00;4994148;28;45218;-84
2022/04/03 07:48:07;;;;;;;;;10.67;9.00;;;;;8.91;34.53;101976.38;4995153;28;45204;-84
2022/04/03 07:50:32;;;;;;;;;7.33;7.33;;;;;9.33;34.66;102039.50;5009476;28;47254;-85
2022/04/03 07:52:59;;;;;;;;;7.33;7.00;;;;;9.61;34.66;102085.13;4994584;28;45466;-84
2022/04/03 07:55:24;;;;;;;;;8.33;8.33;;;;;9.73;34.86;102099.06;4994065;28;45471;-85
2022/04/03 07:57:49;;;;;;;;;8.67;7.33;;;;;9.79;34.31;102073.25;4994231;28;45314;-84
2022/04/03 08:00:15;;;;;;;;;6.67;6.67;;;;;9.69;34.09;102046.81;4994138;28;45828;-85
2022/04/03 08:02:41;;;;;;;;;6.67;5.00;;;;;9.45;34.21;102000.22;4993104;28;45316;-87
2022/04/03 08:05:07;;;;;;;;;8.00;6.67;;;;;10.33;34.25;102129.03;4993959;28;45516;-85
2022/04/03 08:07:43;;;;;;;;;8.00;8.00;;;;;10.42;33.55;102130.63;4993411;28;45631;-84
2022/04/03 08:10:10;;;;;;;;;6.00;6.00;;;;;10.07;33.63;102066.47;4992811;28;46354;-85
2022/04/03 08:12:35;;;;;;;;;8.00;6.33;;;;;10.60;33.70;102127.56;4991360;28;45373;-85
2022/04/03 08:15:02;;;;;;;;;5.00;5.00;;;;;10.23;32.97;102035.06;4993238;28;45313;-85
2022/04/03 08:17:28;;;;;;;;;12.67;7.00;;;;;11.02;32.56;102146.19;4994262;28;45722;-85
2022/04/03 08:19:53;;;;;;;;;5.00;5.00;;;;;10.53;32.13;102028.19;5002374;28;45466;-85
2022/04/03 08:22:18;;;;;;;;;4.33;3.33;;;;;11.04;31.32;102040.31;5012624;28;45424;-86
2022/04/03 08:24:44;;;;;;;;;6.00;6.00;;;;;12.41;30.41;102144.44;5007493;27;45373;-86
2022/04/03 08:27:10;;;;;;;;;6.00;5.33;;;;;13.38;29.19;102090.56;4994870;28;45495;-82
2022/04/03 08:29:37;;;;;;;;;5.33;5.33;;;;;14.89;27.99;102118.16;4996402;28;46490;-82
2022/04/03 08:32:03;;;;;;;;;2.67;2.33;;;;;16.23;25.92;102120.56;5003169;28;45601;-82
2022/04/03 08:34:28;;;;;;;;;5.00;4.00;;;;;17.70;24.91;102126.91;4999168;28;45409;-82
2022/04/03 08:36:53;;;;;;;;;6.00;4.33;;;;;19.23;23.72;102124.91;4993614;28;46491;-82
2022/04/03 08:39:19;;;;;;;;;5.33;4.00;;;;;20.61;22.15;102092.16;5006999;28;58029;-82
2022/04/03 08:41:44;;;;;;;;;5.33;4.33;;;;;21.87;20.99;102072.00;4991843;28;56622;-82
2022/04/03 08:44:10;;;;;;;;;4.67;4.00;;;;;23.04;20.16;102055.38;4991024;27;45437;-84
2022/04/03 08:46:40;;;;;;;;;5.00;4.00;;;;;24.30;19.25;102065.47;5010565;27;45575;-84
2022/04/03 08:49:07;;;;;;;;;4.00;4.00;;;;;25.70;17.74;102114.75;5013964;28;45446;-85
2022/04/03 08:51:36;;;;;;;;;4.00;3.00;;;;;26.40;16.62;102051.31;5010102;28;45474;-84
2022/04/03 08:54:04;;;;;;;;;4.00;3.00;;;;;27.01;16.11;102036.63;4995900;28;45380;-85
2022/04/03 08:56:30;;;;;;;;;5.33;2.33;;;;;27.92;15.13;102057.19;4996914;28;45499;-84
2022/04/03 08:58:55;;;;;;;;;3.00;3.00;;;;;28.15;15.12;102111.66;4995605;27;46359;-86
2022/04/03 09:01:21;;;;;;;;;2.00;2.00;;;;;26.85;15.49;102068.13;4996708;28;45518;-88
2022/04/03 09:03:47;;;;;;;;;0.33;0.33;;;;;26.42;15.91;102072.03;4995947;28;45377;-85
2022/04/03 09:06:21;;;;;;;;;5.00;3.00;;;;;27.50;16.21;102073.97;5024852;27;45598;-88
2022/04/03 09:08:48;;;;;;;;;2.00;2.00;;;;;28.19;15.17;102092.03;5008827;28;47372;-87
2022/04/03 09:11:14;;;;;;;;;4.00;3.00;;;;;27.06;14.71;102061.69;4999492;28;45295;-85
2022/04/03 09:13:41;;;;;;;;;2.00;2.00;;;;;26.52;15.02;102077.53;5001175;28;45470;-86
2022/04/03 09:16:07;;;;;;;;;4.00;4.00;;;;;26.19;14.93;102065.03;4993668;28;45496;-87
2022/04/03 09:19:01;;;;;;;;;2.67;2.67;;;;;26.10;15.61;102107.69;4994242;28;46343;-83
2022/04/03 09:21:27;;;;;;;;;4.00;3.00;;;;;25.89;15.24;102126.84;5006130;27;46358;-89
2022/04/03 09:24:07;;;;;;;;;3.00;3.00;;;;;25.32;15.38;102063.44;4992665;28;45472;-87
2022/04/03 09:26:34;;;;;;;;;5.00;5.00;;;;;24.47;14.99;101984.22;4997494;28;45522;-89
2022/04/03 09:29:25;;;;;;;;;3.33;3.33;;;;;24.85;16.26;102110.06;4998579;28;47450;-88
2022/04/03 09:32:02;;;;;;;;;4.33;4.33;;;;;24.16;16.09;102016.69;5005416;27;45521;-88
2022/04/03 09:34:29;;;;;;;;;5.00;5.00;;;;;23.96;15.81;102013.72;4998033;27;45559;-88
2022/04/03 09:37:05;;;;;;;;;6.33;6.33;;;;;24.30;15.88;102109.06;4996722;28;45484;-82
2022/04/03 09:39:30;;;;;;;;;4.67;4.67;;;;;24.08;15.58;102111.78;4999859;28;45474;-86
2022/04/03 09:42:12;;;;;;;;;4.00;3.00;;;;;23.82;15.95;102117.44;5002439;28;45393;-85
2022/04/03 09:44:41;;;;;;;;;3.00;3.00;;;;;23.64;15.81;102111.53;4996545;28;45728;-82
2022/04/03 09:47:24;;;;;;;;;3.00;3.00;;;;;23.54;15.38;102105.06;4995597;28;45367;-83
2022/04/03 09:49:52;;;;;;;;;5.67;4.00;;;;;23.46;15.20;102113.84;4996716;28;45424;-82
2022/04/03 09:52:38;;;;;;;;;6.00;6.00;;;;;23.43;16.42;102103.16;5005591;28;45664;-82
2022/04/03 09:55:23;;;;;;;;;5.67;4.67;;;;;23.77;16.34;102111.50;4995715;28;45395;-83
2022/04/03 09:58:10;;;;;;;;;2.00;2.00;;;;;23.97;15.33;102113.50;4997394;28;45514;-82
2022/04/03 10:00:41;;;;;;;;;2.00;2.00;;;;;24.17;15.40;102113.78;4998511;28;46425;-83
2022/04/03 10:03:10;;;;;;;;;2.00;2.00;;;;;24.34;15.01;102102.41;4998848;27;46399;-83
2022/04/03 10:05:39;;;;;;;;;3.33;3.33;;;;;24.56;14.71;102101.56;4998773;28;45456;-83
2022/04/03 10:08:06;;;;;;;;;2.67;2.67;;;;;24.71;14.47;102088.53;4999870;28;45429;-83
2022/04/03 10:10:34;;;;;;;;;15.33;14.33;;;;;24.78;13.87;102059.75;4996370;27;45703;-83
2022/04/03 10:13:00;;;;;;;;;9.33;9.33;;;;;25.40;13.80;102106.47;4998202;28;45856;-83
2022/04/03 10:15:27;;;;;;;;;8.33;8.33;;;;;25.66;14.09;102101.47;4997865;27;45745;-82
2022/04/03 10:17:54;;;;;;;;;3.67;3.67;;;;;25.93;13.45;102097.41;5000219;28;45546;-83
2022/04/03 10:20:24;;;;;;;;;2.33;1.00;;;;;26.01;13.98;102101.19;4999147;28;45903;-83
2022/04/03 10:22:55;;;;;;;;;1.33;1.33;;;;;26.02;14.14;102025.56;4998235;28;45452;-84
2022/04/03 10:25:28;;;;;;;;;1.67;1.67;;;;;26.56;13.58;102094.56;4995135;28;45557;-82
2022/04/03 10:27:58;;;;;;;;;1.00;1.00;;;;;26.05;13.47;101967.88;5002274;27;45600;-83
2022/04/03 10:30:59;;;;;;;;;2.00;2.00;;;;;26.74;13.07;102087.44;4998008;28;45523;-83
2022/04/03 10:33:32;;;;;;;;;3.33;3.33;;;;;26.43;12.49;102042.81;5015236;28;45492;-83
2022/04/03 10:36:17;;;;;;;;;3.00;3.00;;;;;26.38;13.43;102001.38;5014461;28;45513;-83
2022/04/03 10:38:45;;;;;;;;;1.33;1.00;;;;;26.90;13.15;102084.13;5010807;28;45361;-82
2022/04/03 10:41:30;;;;;;;;;1.33;1.33;;;;;26.60;13.07;102079.59;5013694;28;45945;-82
2022/04/03 10:44:18;;;;;;;;;5.00;4.00;;;;;25.93;13.44;102086.47;5011936;28;45466;-82
2022/04/03 10:47:04;;;;;;;;;3.00;3.00;;;;;25.04;14.06;102089.44;5013448;28;45508;-84
2022/04/03 10:49:56;;;;;;;;;6.33;4.00;;;;;24.45;14.32;102085.19;5010219;28;45510;-83
2022/04/03 10:52:26;;;;;;;;;2.00;2.00;;;;;23.38;14.51;102012.84;4996905;28;47184;-81
2022/04/03 10:54:58;;;;;;;;;3.00;3.00;;;;;23.42;14.54;102085.09;4995451;28;45580;-80
2022/04/03 10:57:43;;;;;;;;;4.00;3.00;;;;;23.02;14.76;102054.66;5013451;28;45969;-79
2022/04/03 11:00:16;;;;;;;;;2.00;2.00;;;;;23.01;15.47;102077.38;5013066;28;45516;-79
2022/04/03 11:02:52;;;;;;;;;2.33;1.00;;;;;22.76;15.79;102076.47;5013309;28;45474;-79
2022/04/03 11:05:27;;;;;;;;;1.00;1.00;;;;;22.69;15.31;102075.19;5009880;28;45830;-79
2022/04/03 11:08:04;;;;;;;;;1.67;1.67;;;;;22.58;16.01;102072.38;5011061;28;45475;-80
2022/04/03 11:10:52;;;;;;;;;3.00;3.00;;;;;22.36;16.28;102073.97;4994779;27;45478;-82
2022/04/03 11:13:39;;;;;;;;;2.67;2.00;;;;;22.32;16.62;102067.00;4993737;28;47030;-80
2022/04/03 11:16:09;;;;;;;;;2.00;2.00;;;;;22.46;16.50;102046.97;4992765;27;45578;-81
2022/04/03 11:18:36;;;;;;;;;2.00;2.00;;;;;23.10;16.30;102039.47;5001493;27;45495;-82
2022/04/03 11:21:18;;;;;;;;;4.00;2.67;;;;;23.85;15.75;101989.19;5000627;28;45437;-82
2022/04/03 11:24:05;;;;;;;;;2.67;2.33;;;;;24.98;15.03;102030.81;4989904;28;45546;-81
2022/04/03 11:26:34;;;;;;;;;1.33;1.33;;;;;25.21;13.92;101973.44;5004706;28;45365;-84
2022/04/03 11:29:01;;;;;;;;;2.00;2.00;;;;;25.45;13.73;102030.47;4993943;28;45346;-85